Time;durP1;ratioP1;P1;durP2;ratioP2;P2;SDS_P1;SDS_P2;PMS_P1;PMS_P2;Temp;Humidity;BMP_temperature;BMP_pressure;BME280_temperature;BME280_humidity;BME280_pressure;Samples;Min_cycle;Max_cycle;Signal;HPM_P1;HPM_P2
2022/10/15 00:01:14;;;;;;;0.20;0.20;;;;;;;13.93;100.00;95032.75;4305408;33;20240;-63
2022/10/15 00:03:41;;;;;;;0.20;0.20;;;;;;;13.97;100.00;95034.47;4282767;32;20189;-64
2022/10/15 00:06:11;;;;;;;0.30;0.30;;;;;;;13.86;100.00;95029.84;4331595;32;20185;-64
2022/10/15 00:08:37;;;;;;;0.13;0.13;;;;;;;13.93;100.00;95024.75;4330295;32;20207;-64
2022/10/15 00:11:27;;;;;;;0.40;0.40;;;;;;;14.04;100.00;95018.75;4307669;33;20185;-63
2022/10/15 00:13:57;;;;;;;2.50;0.33;;;;;;;14.06;100.00;95026.44;4317423;32;20189;-63
2022/10/15 00:16:24;;;;;;;0.77;0.20;;;;;;;13.88;100.00;95027.62;4354957;32;20273;-63
2022/10/15 00:18:55;;;;;;;0.10;0.10;;;;;;;13.90;100.00;95025.44;4346752;32;20181;-63
2022/10/15 00:21:23;;;;;;;0.00;0.00;;;;;;;14.01;100.00;95022.06;4349342;32;20185;-63
2022/10/15 00:23:48;;;;;;;0.10;0.10;;;;;;;13.97;100.00;95023.03;4308618;32;20198;-63
2022/10/15 00:26:16;;;;;;;0.10;0.10;;;;;;;13.92;100.00;95021.34;4344706;32;20200;-63
2022/10/15 00:28:43;;;;;;;0.30;0.30;;;;;;;13.93;100.00;95025.53;4339377;32;20235;-63
2022/10/15 00:31:14;;;;;;;0.30;0.30;;;;;;;13.99;100.00;95015.47;4337171;32;20196;-63
2022/10/15 00:33:40;;;;;;;1.10;0.53;;;;;;;13.79;100.00;95017.00;4328460;33;20182;-63
2022/10/15 00:36:15;;;;;;;0.27;0.27;;;;;;;14.03;100.00;95013.75;4319424;32;20195;-64
2022/10/15 00:38:41;;;;;;;0.77;0.60;;;;;;;14.03;100.00;95013.75;4317944;32;20186;-63
2022/10/15 00:41:07;;;;;;;0.13;0.13;;;;;;;13.94;100.00;95013.78;4317499;32;20193;-63
2022/10/15 00:43:49;;;;;;;0.07;0.07;;;;;;;13.89;100.00;94989.19;4316253;32;20198;-63
2022/10/15 00:46:18;;;;;;;0.20;0.20;;;;;;;13.87;100.00;94989.50;4339810;32;20259;-63
2022/10/15 00:48:47;;;;;;;1.43;0.53;;;;;;;13.89;100.00;94994.53;4339789;32;20207;-63
2022/10/15 00:51:15;;;;;;;0.17;0.17;;;;;;;13.88;100.00;94987.63;4315054;32;20190;-64
2022/10/15 00:53:43;;;;;;;0.17;0.17;;;;;;;14.00;100.00;94982.38;4298286;33;20186;-64
2022/10/15 00:56:10;;;;;;;0.17;0.17;;;;;;;14.02;100.00;94983.63;4317368;32;20255;-63
2022/10/15 00:58:37;;;;;;;0.30;0.20;;;;;;;13.97;100.00;94981.13;4316932;32;20178;-64
2022/10/15 01:01:04;;;;;;;3.93;0.60;;;;;;;14.01;100.00;94976.72;4332805;32;20190;-63
2022/10/15 01:03:29;;;;;;;0.20;0.20;;;;;;;13.95;100.00;94974.53;4301681;33;20198;-63
2022/10/15 01:05:55;;;;;;;0.00;0.00;;;;;;;14.06;100.00;94965.09;4311857;33;20185;-64
2022/10/15 01:08:25;;;;;;;1.30;0.33;;;;;;;14.09;100.00;94964.44;4337313;32;20173;-63
2022/10/15 01:11:21;;;;;;;0.13;0.13;;;;;;;14.08;100.00;94963.66;4330081;32;20249;-63
2022/10/15 01:14:09;;;;;;;0.23;0.17;;;;;;;13.99;100.00;94970.91;4341169;32;20186;-63
2022/10/15 01:16:44;;;;;;;0.10;0.10;;;;;;;14.04;100.00;94965.41;4316075;32;20185;-63
2022/10/15 01:19:28;;;;;;;0.10;0.10;;;;;;;13.99;100.00;94951.47;4312987;32;20200;-64
2022/10/15 01:22:10;;;;;;;0.20;0.20;;;;;;;13.92;100.00;94961.88;4301883;33;20193;-64
2022/10/15 01:24:43;;;;;;;0.20;0.20;;;;;;;13.95;100.00;94955.87;4323309;32;20211;-64
2022/10/15 01:27:34;;;;;;;0.33;0.33;;;;;;;14.05;100.00;94960.84;4299674;33;20174;-63
2022/10/15 01:30:45;;;;;;;0.10;0.10;;;;;;;14.03;100.00;94952.38;4332308;32;20255;-63
2022/10/15 01:33:15;;;;;;;4.83;0.73;;;;;;;13.88;100.00;94958.28;4345455;32;20181;-64
2022/10/15 01:36:04;;;;;;;0.10;0.10;;;;;;;13.97;100.00;94946.47;4349130;32;20185;-64
2022/10/15 01:38:45;;;;;;;0.10;0.10;;;;;;;14.02;100.00;94946.28;4323731;33;20207;-64
2022/10/15 01:41:42;;;;;;;0.27;0.27;;;;;;;13.95;100.00;94945.22;4302876;33;20205;-64
2022/10/15 01:44:17;;;;;;;0.20;0.20;;;;;;;13.87;100.00;94935.41;4321286;33;20190;-63
2022/10/15 01:46:48;;;;;;;0.00;0.00;;;;;;;13.94;100.00;94935.66;4321372;32;20224;-64
2022/10/15 01:49:20;;;;;;;0.57;0.30;;;;;;;13.90;100.00;94932.87;4334536;32;20184;-63
2022/10/15 01:51:49;;;;;;;0.30;0.30;;;;;;;13.82;100.00;94938.25;4319372;33;20247;-63
2022/10/15 01:54:18;;;;;;;0.20;0.10;;;;;;;13.97;100.00;94932.34;4316941;33;20201;-63
2022/10/15 01:56:48;;;;;;;0.37;0.37;;;;;;;14.02;100.00;94930.28;4333143;32;20208;-64
2022/10/15 01:59:21;;;;;;;0.13;0.13;;;;;;;13.79;100.00;94930.88;4313410;32;20204;-64
2022/10/15 02:01:47;;;;;;;0.00;0.00;;;;;;;13.97;100.00;94916.34;4326978;33;20182;-63
2022/10/15 02:04:22;;;;;;;0.10;0.10;;;;;;;13.91;100.00;94918.44;4330222;33;20275;-64
2022/10/15 02:07:00;;;;;;;0.20;0.20;;;;;;;13.94;100.00;94922.31;4324662;32;20200;-63
2022/10/15 02:10:07;;;;;;;0.00;0.00;;;;;;;14.00;100.00;94921.81;4335463;33;20176;-64
2022/10/15 02:13:21;;;;;;;0.37;0.37;;;;;;;14.00;100.00;94915.69;4309090;33;20202;-64
2022/10/15 02:15:58;;;;;;;0.10;0.10;;;;;;;13.82;100.00;94914.25;4301665;33;20202;-64
2022/10/15 02:18:40;;;;;;;0.40;0.40;;;;;;;13.87;100.00;94903.41;4296980;33;20226;-64
2022/10/15 02:21:18;;;;;;;0.10;0.10;;;;;;;13.97;100.00;94911.00;4287414;33;20217;-64
2022/10/15 02:23:55;;;;;;;0.10;0.10;;;;;;;13.92;100.00;94914.66;4328004;32;20185;-64
2022/10/15 02:26:25;;;;;;;0.20;0.20;;;;;;;13.99;100.00;94909.56;4331909;32;20185;-63
2022/10/15 02:28:55;;;;;;;0.40;0.30;;;;;;;13.98;100.00;94907.22;4344090;32;20213;-63
2022/10/15 02:31:22;;;;;;;0.20;0.20;;;;;;;13.97;100.00;94905.66;4306147;32;20177;-64
2022/10/15 02:33:51;;;;;;;0.10;0.10;;;;;;;14.00;100.00;94905.03;4304353;33;20198;-64
2022/10/15 02:36:20;;;;;;;0.00;0.00;;;;;;;14.02;100.00;94902.81;4306438;32;20276;-64
2022/10/15 02:38:54;;;;;;;0.10;0.10;;;;;;;13.91;100.00;94902.44;4327480;32;20196;-64
2022/10/15 02:41:22;;;;;;;0.00;0.00;;;;;;;13.96;100.00;94899.56;4338176;32;20255;-64
2022/10/15 02:43:49;;;;;;;0.10;0.10;;;;;;;13.99;100.00;94895.47;4321495;32;20260;-64
2022/10/15 02:46:16;;;;;;;0.10;0.10;;;;;;;14.05;100.00;94904.84;4320494;32;20204;-64
2022/10/15 02:48:42;;;;;;;0.00;0.00;;;;;;;13.75;100.00;94890.75;4330605;32;20217;-63
2022/10/15 02:51:07;;;;;;;0.00;0.00;;;;;;;13.92;100.00;94901.34;4311761;32;20189;-64
2022/10/15 02:53:32;;;;;;;0.20;0.20;;;;;;;13.88;100.00;94891.63;4317161;32;20236;-63
2022/10/15 02:55:58;;;;;;;0.33;0.23;;;;;;;13.92;100.00;94893.34;4320741;32;20189;-64
2022/10/15 02:58:24;;;;;;;0.30;0.30;;;;;;;13.84;100.00;94890.72;4302826;32;20198;-64
2022/10/15 03:00:51;;;;;;;0.03;0.03;;;;;;;13.85;100.00;94886.94;4303486;33;20288;-63
2022/10/15 03:03:17;;;;;;;0.10;0.10;;;;;;;14.02;100.00;94886.81;4316886;32;20205;-64
2022/10/15 03:05:44;;;;;;;0.33;0.33;;;;;;;13.98;100.00;94875.22;4305502;32;20259;-63
2022/10/15 03:08:12;;;;;;;0.20;0.20;;;;;;;14.06;100.00;94887.72;4321395;33;20190;-63
2022/10/15 03:10:38;;;;;;;0.20;0.20;;;;;;;14.05;100.00;94880.84;4335718;32;20188;-64
2022/10/15 03:13:05;;;;;;;0.30;0.30;;;;;;;14.07;100.00;94883.97;4332642;32;20190;-64
2022/10/15 03:15:36;;;;;;;0.10;0.10;;;;;;;13.94;100.00;94882.31;4329504;32;20212;-64
2022/10/15 03:18:01;;;;;;;0.00;0.00;;;;;;;14.03;100.00;94877.72;4310366;32;20228;-64
2022/10/15 03:20:27;;;;;;;0.00;0.00;;;;;;;14.08;100.00;94880.97;4284061;32;20193;-63
2022/10/15 03:22:52;;;;;;;0.00;0.00;;;;;;;13.84;100.00;94885.38;4305934;32;20245;-63
2022/10/15 03:25:19;;;;;;;0.00;0.00;;;;;;;13.79;100.00;94886.34;4311867;32;20205;-63
2022/10/15 03:27:44;;;;;;;0.30;0.30;;;;;;;13.79;100.00;94891.69;4320035;32;20190;-64
2022/10/15 03:30:11;;;;;;;0.10;0.10;;;;;;;13.93;100.00;94891.41;4332668;32;20213;-64
2022/10/15 03:32:36;;;;;;;0.20;0.20;;;;;;;13.93;100.00;94883.41;4297706;32;20208;-64
2022/10/15 03:35:02;;;;;;;0.00;0.00;;;;;;;13.87;100.00;94884.72;4295473;33;20206;-63
2022/10/15 03:37:28;;;;;;;0.57;0.43;;;;;;;13.85;100.00;94884.28;4264316;33;20273;-64
2022/10/15 03:39:53;;;;;;;0.40;0.40;;;;;;;13.87;100.00;94880.19;4323583;32;20197;-64
2022/10/15 03:42:21;;;;;;;0.77;0.40;;;;;;;13.86;100.00;94883.16;4322980;32;20182;-64
2022/10/15 03:44:48;;;;;;;0.10;0.03;;;;;;;13.92;100.00;94885.34;4333866;32;20181;-64
2022/10/15 03:47:15;;;;;;;1.50;0.40;;;;;;;13.97;100.00;94876.34;4327030;32;20257;-63
2022/10/15 03:49:41;;;;;;;0.10;0.10;;;;;;;14.04;100.00;94879.28;4313733;32;20196;-64
2022/10/15 03:52:09;;;;;;;0.10;0.10;;;;;;;14.07;100.00;94883.97;4322373;32;20240;-63
2022/10/15 03:54:36;;;;;;;0.13;0.13;;;;;;;14.09;100.00;94882.53;4341943;32;20249;-64
2022/10/15 03:57:02;;;;;;;0.03;0.03;;;;;;;14.15;100.00;94884.97;4316435;32;20194;-64
2022/10/15 03:59:27;;;;;;;0.10;0.10;;;;;;;14.12;100.00;94881.09;4327192;32;20189;-63
2022/10/15 04:01:54;;;;;;;0.00;0.00;;;;;;;14.18;100.00;94887.78;4307442;33;20289;-63
2022/10/15 04:04:22;;;;;;;0.93;0.20;;;;;;;14.05;100.00;94878.16;4337967;32;20189;-64
2022/10/15 04:06:48;;;;;;;0.27;0.27;;;;;;;14.18;100.00;94885.13;4331737;32;20235;-63
2022/10/15 04:09:14;;;;;;;0.20;0.20;;;;;;;14.23;100.00;94881.47;4301471;32;20208;-63
2022/10/15 04:11:39;;;;;;;0.10;0.10;;;;;;;14.09;100.00;94877.19;4274281;33;20191;-63
2022/10/15 04:14:05;;;;;;;0.00;0.00;;;;;;;14.04;100.00;94879.28;4304528;32;20202;-63
2022/10/15 04:16:32;;;;;;;0.13;0.13;;;;;;;13.91;100.00;94883.78;4283148;33;20205;-63
2022/10/15 04:18:58;;;;;;;0.10;0.10;;;;;;;14.00;100.00;94883.69;4325989;32;20182;-63
2022/10/15 04:21:24;;;;;;;0.00;0.00;;;;;;;14.01;100.00;94882.59;4343146;32;20201;-63
2022/10/15 04:23:50;;;;;;;0.00;0.00;;;;;;;14.10;100.00;94880.66;4301050;32;20182;-63
2022/10/15 04:26:15;;;;;;;0.00;0.00;;;;;;;14.05;100.00;94883.50;4303737;32;20240;-63
2022/10/15 04:28:42;;;;;;;1.30;0.43;;;;;;;14.00;100.00;94881.81;4344211;32;20227;-63
2022/10/15 04:31:07;;;;;;;0.27;0.27;;;;;;;14.03;100.00;94878.50;4330615;32;20186;-64
2022/10/15 04:33:33;;;;;;;0.00;0.00;;;;;;;14.08;100.00;94880.97;4293912;33;20190;-64
2022/10/15 04:36:05;;;;;;;0.00;0.00;;;;;;;14.05;100.00;94880.84;4318809;32;20310;-63
2022/10/15 04:38:35;;;;;;;0.10;0.10;;;;;;;14.08;100.00;94880.19;4272999;33;20248;-63
2022/10/15 04:41:05;;;;;;;0.10;0.10;;;;;;;13.98;100.00;94877.91;4315633;33;20194;-63
2022/10/15 04:43:32;;;;;;;0.20;0.20;;;;;;;13.93;100.00;94886.09;4330482;32;20279;-63
2022/10/15 04:46:02;;;;;;;0.10;0.10;;;;;;;13.96;100.00;94880.09;4335351;32;20193;-64
2022/10/15 04:48:30;;;;;;;0.37;0.20;;;;;;;13.94;100.00;94887.66;4318455;32;20238;-63
2022/10/15 04:51:07;;;;;;;0.00;0.00;;;;;;;13.95;100.00;94879.31;4336369;32;20211;-63
2022/10/15 04:53:33;;;;;;;0.50;0.20;;;;;;;13.94;100.00;94885.75;4314434;32;20240;-63
2022/10/15 04:56:08;;;;;;;0.10;0.10;;;;;;;13.99;100.00;94879.47;4312002;32;20202;-63
2022/10/15 04:58:34;;;;;;;0.20;0.20;;;;;;;13.96;100.00;94880.09;4308076;33;20205;-63
2022/10/15 05:01:03;;;;;;;0.10;0.10;;;;;;;14.05;100.00;94880.84;4301045;33;20208;-63
2022/10/15 05:03:30;;;;;;;0.00;0.00;;;;;;;14.11;100.00;94879.53;4328936;32;20200;-63
2022/10/15 05:06:01;;;;;;;0.10;0.10;;;;;;;14.16;100.00;94883.88;4331118;33;21531;-63
2022/10/15 05:08:29;;;;;;;0.00;0.00;;;;;;;14.18;100.00;94882.44;4310768;33;20272;-64
2022/10/15 05:11:00;;;;;;;0.10;0.10;;;;;;;14.15;100.00;94890.31;4325277;32;20197;-63
2022/10/15 05:13:28;;;;;;;0.00;0.00;;;;;;;14.27;100.00;94890.38;4329207;32;20287;-63
2022/10/15 05:15:54;;;;;;;0.00;0.00;;;;;;;14.29;100.00;94886.28;4319281;33;20189;-64
2022/10/15 05:18:21;;;;;;;0.00;0.00;;;;;;;14.29;100.00;94890.84;4292338;33;20196;-63
2022/10/15 05:20:48;;;;;;;0.00;0.00;;;;;;;14.28;100.00;94891.94;4306160;33;20229;-63
2022/10/15 05:23:13;;;;;;;0.27;0.27;;;;;;;14.34;100.00;94898.66;4302723;33;20237;-63
2022/10/15 05:25:39;;;;;;;0.10;0.10;;;;;;;14.32;100.00;94901.66;4296971;33;20198;-63
2022/10/15 05:28:04;;;;;;;0.10;0.10;;;;;;;14.36;100.00;94902.53;4313117;33;20196;-63
2022/10/15 05:30:33;;;;;;;0.10;0.10;;;;;;;14.44;100.00;94896.38;4281011;33;20236;-63
2022/10/15 05:32:58;;;;;;;0.00;0.00;;;;;;;14.37;100.00;94901.44;4311104;33;20182;-63
2022/10/15 05:35:25;;;;;;;0.10;0.10;;;;;;;14.42;100.00;94909.28;4306103;32;20216;-63
2022/10/15 05:37:52;;;;;;;0.07;0.07;;;;;;;14.35;100.00;94908.19;4296442;32;20235;-63
2022/10/15 05:40:17;;;;;;;0.00;0.00;;;;;;;14.30;100.00;94908.41;4310524;33;20198;-63
2022/10/15 05:42:43;;;;;;;0.33;0.33;;;;;;;14.39;100.00;94919.78;4296073;33;20292;-63
2022/10/15 05:45:10;;;;;;;0.07;0.07;;;;;;;14.41;100.00;94922.94;4282211;33;20201;-63
2022/10/15 05:47:36;;;;;;;0.07;0.07;;;;;;;14.36;100.00;94918.53;4296951;33;20216;-63
2022/10/15 05:50:03;;;;;;;0.00;0.00;;;;;;;14.34;100.00;94931.44;4301232;33;20190;-63
2022/10/15 05:52:30;;;;;;;0.23;0.23;;;;;;;14.40;100.00;94927.50;4311062;33;20190;-63
2022/10/15 05:54:58;;;;;;;0.10;0.10;;;;;;;14.47;100.00;94931.53;4303969;33;20248;-63
2022/10/15 05:57:25;;;;;;;0.10;0.10;;;;;;;14.46;100.00;94927.31;4295615;33;20229;-63
2022/10/15 05:59:51;;;;;;;0.70;0.20;;;;;;;14.44;100.00;94933.75;4289850;33;20182;-63
2022/10/15 06:02:17;;;;;;;0.03;0.03;;;;;;;14.52;100.00;94931.34;4304606;33;20197;-63
2022/10/15 06:04:42;;;;;;;2.13;0.20;;;;;;;14.52;100.00;94942.81;4306860;33;20268;-63
2022/10/15 06:07:08;;;;;;;0.00;0.00;;;;;;;14.56;100.00;94937.56;4301599;32;20200;-63
2022/10/15 06:09:36;;;;;;;0.10;0.10;;;;;;;14.49;100.00;94943.47;4310485;33;20200;-63
2022/10/15 06:12:03;;;;;;;0.10;0.10;;;;;;;14.56;100.00;94945.56;4312681;33;20220;-63
2022/10/15 06:14:29;;;;;;;0.13;0.13;;;;;;;14.56;100.00;94951.69;4301948;33;20209;-64
2022/10/15 06:16:54;;;;;;;0.13;0.10;;;;;;;14.50;100.00;94957.59;4298806;32;20189;-63
2022/10/15 06:19:20;;;;;;;0.10;0.10;;;;;;;14.59;100.00;94960.94;4289463;33;20202;-63
2022/10/15 06:21:46;;;;;;;0.00;0.00;;;;;;;14.63;100.00;94953.84;4289767;32;20209;-64
2022/10/15 06:24:11;;;;;;;0.10;0.10;;;;;;;14.52;100.00;94966.06;4299141;33;20193;-63
2022/10/15 06:26:38;;;;;;;0.73;0.37;;;;;;;14.53;100.00;94960.38;4324966;32;20193;-64
2022/10/15 06:29:05;;;;;;;0.00;0.00;;;;;;;14.63;100.00;94972.53;4312514;32;20279;-63
2022/10/15 06:31:31;;;;;;;0.00;0.00;;;;;;;14.52;100.00;94974.84;4339395;32;20193;-63
2022/10/15 06:33:56;;;;;;;0.43;0.20;;;;;;;14.63;100.00;94980.53;4297100;33;20319;-63
2022/10/15 06:36:24;;;;;;;0.30;0.13;;;;;;;14.61;100.00;94980.09;4298365;32;20201;-63
2022/10/15 06:38:50;;;;;;;0.10;0.10;;;;;;;14.59;100.00;94984.97;4307628;32;20259;-63
2022/10/15 06:41:15;;;;;;;0.10;0.10;;;;;;;14.61;100.00;95004.91;4321570;32;20193;-63
2022/10/15 06:43:43;;;;;;;0.00;0.00;;;;;;;14.65;100.00;95000.47;4315319;32;20197;-63
2022/10/15 06:46:09;;;;;;;0.00;0.00;;;;;;;14.65;100.00;95005.03;4321047;32;20261;-64
2022/10/15 06:48:34;;;;;;;1.23;0.20;;;;;;;14.66;100.00;94998.59;4328264;33;20178;-63
2022/10/15 06:51:03;;;;;;;0.00;0.00;;;;;;;14.58;100.00;95010.09;4315801;32;20190;-63
2022/10/15 06:53:31;;;;;;;0.37;0.20;;;;;;;14.64;100.00;95019.50;4292851;32;20186;-63
2022/10/15 06:55:59;;;;;;;0.17;0.17;;;;;;;14.60;100.00;95015.91;4337400;32;20368;-64
2022/10/15 06:58:27;;;;;;;0.00;0.00;;;;;;;14.61;100.00;95017.47;4332898;32;20240;-63
2022/10/15 07:00:59;;;;;;;0.00;0.00;;;;;;;14.63;100.00;95009.91;4316518;32;20186;-63
2022/10/15 07:03:25;;;;;;;0.00;0.00;;;;;;;14.62;100.00;95017.16;4330620;32;20270;-63
2022/10/15 07:05:51;;;;;;;0.00;0.00;;;;;;;14.67;100.00;95026.84;4326726;32;20208;-63
2022/10/15 07:08:19;;;;;;;0.20;0.20;;;;;;;14.72;100.00;95027.44;4330759;32;20261;-63
2022/10/15 07:10:46;;;;;;;0.00;0.00;;;;;;;14.74;100.00;95029.78;4322183;32;20229;-63
2022/10/15 07:13:15;;;;;;;0.30;0.10;;;;;;;14.81;100.00;95043.38;4323153;32;20182;-64
2022/10/15 07:15:40;;;;;;;0.00;0.00;;;;;;;14.77;100.00;95035.25;4309099;33;20245;-63
2022/10/15 07:18:05;;;;;;;0.20;0.20;;;;;;;14.82;100.00;95041.50;4327585;33;20258;-63
2022/10/15 07:20:33;;;;;;;0.33;0.33;;;;;;;14.80;100.00;95047.16;4300668;33;20194;-63
2022/10/15 07:23:01;;;;;;;0.23;0.23;;;;;;;14.88;100.00;95042.88;4332856;32;20299;-63
2022/10/15 07:25:27;;;;;;;2.33;0.30;;;;;;;14.81;100.00;95053.28;4312110;33;22673;-63
2022/10/15 07:27:54;;;;;;;1.90;0.20;;;;;;;14.86;100.00;95045.09;4314640;32;20308;-63
2022/10/15 07:30:29;;;;;;;0.20;0.20;;;;;;;14.87;100.00;95055.44;4326794;32;20194;-63
2022/10/15 07:32:58;;;;;;;0.07;0.07;;;;;;;14.83;100.00;95059.88;4328550;32;20232;-63
2022/10/15 07:35:27;;;;;;;0.00;0.00;;;;;;;14.84;100.00;95057.97;4321529;32;20236;-63
2022/10/15 07:37:54;;;;;;;0.20;0.20;;;;;;;14.82;100.00;95066.31;4320557;32;20194;-63
2022/10/15 07:40:19;;;;;;;0.30;0.30;;;;;;;14.85;100.00;95060.31;4318370;32;20186;-64
2022/10/15 07:42:52;;;;;;;0.03;0.03;;;;;;;14.89;100.00;95081.81;4341896;32;20209;-63
2022/10/15 07:45:19;;;;;;;0.10;0.10;;;;;;;14.92;100.00;95079.28;4321102;32;20215;-63
2022/10/15 07:47:46;;;;;;;0.83;0.47;;;;;;;14.91;100.00;95077.72;4327181;33;20213;-63
2022/10/15 07:50:12;;;;;;;0.00;0.00;;;;;;;14.93;100.00;95082.75;4303239;33;20201;-63
2022/10/15 07:52:39;;;;;;;0.20;0.20;;;;;;;14.96;100.00;95082.88;4309954;33;20257;-64
2022/10/15 07:55:06;;;;;;;0.00;0.00;;;;;;;14.92;100.00;95087.31;4331323;32;20193;-63
2022/10/15 07:57:31;;;;;;;0.00;0.00;;;;;;;14.95;100.00;95088.53;4305542;33;20250;-63
2022/10/15 07:59:58;;;;;;;0.00;0.00;;;;;;;14.86;100.00;95093.16;4320695;32;20254;-63
2022/10/15 08:02:26;;;;;;;0.00;0.00;;;;;;;14.82;100.00;95094.91;4244764;32;20282;-63
2022/10/15 08:04:51;;;;;;;0.00;0.00;;;;;;;14.90;100.00;95086.84;4261892;32;20197;-63
2022/10/15 08:07:17;;;;;;;0.20;0.20;;;;;;;14.89;100.00;95097.84;4271332;33;20229;-63
2022/10/15 08:09:42;;;;;;;0.07;0.07;;;;;;;14.81;100.00;95090.66;4326793;32;20313;-63
2022/10/15 08:12:09;;;;;;;0.07;0.07;;;;;;;14.82;100.00;95100.25;4326194;32;20194;-64
2022/10/15 08:14:37;;;;;;;0.00;0.00;;;;;;;14.87;100.00;95105.41;4290566;32;20190;-63
2022/10/15 08:17:04;;;;;;;0.10;0.10;;;;;;;14.83;100.00;95102.59;4308010;33;20202;-63
2022/10/15 08:19:30;;;;;;;0.00;0.00;;;;;;;14.91;100.00;95103.66;4306564;33;20185;-63
2022/10/15 08:21:59;;;;;;;0.00;0.00;;;;;;;14.91;100.00;95106.31;4312908;33;20233;-63
2022/10/15 08:24:24;;;;;;;0.00;0.00;;;;;;;14.92;100.00;95111.34;4304423;33;20289;-63
2022/10/15 08:26:50;;;;;;;0.10;0.10;;;;;;;14.93;100.00;95115.59;4297949;33;20205;-63
2022/10/15 08:29:15;;;;;;;0.17;0.13;;;;;;;15.02;100.00;95118.94;4305964;33;20233;-63
2022/10/15 08:31:42;;;;;;;0.07;0.07;;;;;;;14.92;100.00;95124.69;4287389;33;20276;-63
2022/10/15 08:34:08;;;;;;;0.00;0.00;;;;;;;14.93;100.00;95134.28;4299036;33;20178;-66
2022/10/15 08:36:34;;;;;;;0.10;0.07;;;;;;;14.92;100.00;95131.94;4298348;33;20248;-63
2022/10/15 08:38:59;;;;;;;0.00;0.00;;;;;;;15.00;100.00;95142.53;4309413;33;20275;-63
2022/10/15 08:41:47;;;;;;;0.00;0.00;;;;;;;15.00;100.00;95145.22;4288398;33;20217;-64
2022/10/15 08:44:29;;;;;;;0.00;0.00;;;;;;;14.94;100.00;95156.44;4292346;33;20246;-63
2022/10/15 08:47:31;;;;;;;0.10;0.10;;;;;;;14.99;100.00;95165.03;4300782;33;20190;-63
2022/10/15 08:50:00;;;;;;;0.00;0.00;;;;;;;15.02;100.00;95175.06;4300961;33;22660;-63
2022/10/15 08:52:37;;;;;;;0.10;0.10;;;;;;;15.05;100.00;95179.75;4275643;33;20190;-63
2022/10/15 08:55:05;;;;;;;0.03;0.03;;;;;;;14.94;100.00;95167.13;4291948;33;20207;-63
2022/10/15 08:57:45;;;;;;;0.00;0.00;;;;;;;14.93;100.00;95165.56;4294146;33;20190;-63
2022/10/15 09:00:39;;;;;;;0.00;0.00;;;;;;;14.86;100.00;95183.97;4292739;33;20237;-63
2022/10/15 09:03:09;;;;;;;0.03;0.03;;;;;;;14.91;100.00;95173.88;4290507;33;20205;-63
2022/10/15 09:05:51;;;;;;;0.00;0.00;;;;;;;14.97;100.00;95183.25;4311819;33;20193;-63
2022/10/15 09:09:11;;;;;;;0.10;0.10;;;;;;;14.99;100.00;95178.38;4300863;33;20194;-63
2022/10/15 09:11:55;;;;;;;0.30;0.30;;;;;;;15.09;100.00;95175.34;4228158;33;20202;-63
2022/10/15 09:14:34;;;;;;;0.10;0.10;;;;;;;15.18;100.00;95172.59;4245513;33;20198;-63
2022/10/15 09:17:05;;;;;;;0.20;0.20;;;;;;;15.22;100.00;95167.38;4313545;33;20215;-63
2022/10/15 09:19:35;;;;;;;0.00;0.00;;;;;;;15.27;100.00;95178.66;4310650;32;20256;-63
2022/10/15 09:22:01;;;;;;;0.00;0.00;;;;;;;15.23;100.00;95183.09;4337095;32;20283;-63
2022/10/15 09:24:29;;;;;;;0.00;0.00;;;;;;;15.26;100.00;95177.09;4311810;33;20275;-63
2022/10/15 09:27:31;;;;;;;0.17;0.17;;;;;;;15.36;100.00;95173.25;4320318;33;20196;-63
2022/10/15 09:30:20;;;;;;;0.10;0.10;;;;;;;15.50;100.00;95171.09;4328918;32;20185;-63
2022/10/15 09:33:12;;;;;;;1.90;0.67;;;;;;;15.40;100.00;95168.81;4319845;32;20219;-63
2022/10/15 09:36:07;;;;;;;5.90;0.83;;;;;;;15.52;100.00;95168.09;4311945;33;20201;-64
2022/10/15 09:38:52;;;;;;;0.20;0.20;;;;;;;15.67;100.00;95167.50;4319483;32;20188;-63
2022/10/15 09:41:36;;;;;;;5.97;0.47;;;;;;;15.70;100.00;95161.50;4320095;33;20215;-63
2022/10/15 09:44:04;;;;;;;0.10;0.10;;;;;;;15.72;100.00;95154.72;4327050;33;20200;-63
2022/10/15 09:46:29;;;;;;;0.00;0.00;;;;;;;15.75;100.00;95167.44;4315067;33;20186;-63
2022/10/15 09:49:17;;;;;;;0.20;0.20;;;;;;;15.81;100.00;95171.44;4301417;33;20220;-63
2022/10/15 09:52:25;;;;;;;0.00;0.00;;;;;;;15.86;100.00;95169.69;4309439;33;20211;-63
2022/10/15 09:55:06;;;;;;;1.23;0.20;;;;;;;15.86;100.00;95169.69;4304076;33;20215;-63
2022/10/15 09:57:36;;;;;;;0.03;0.03;;;;;;;15.99;100.00;95174.75;4294242;33;20204;-64
2022/10/15 10:00:12;;;;;;;0.27;0.27;;;;;;;15.93;100.00;95186.78;4277751;33;20186;-63
2022/10/15 10:02:38;;;;;;;0.40;0.40;;;;;;;15.96;100.00;95175.41;4321706;33;20204;-63
2022/10/15 10:05:31;;;;;;;0.17;0.17;;;;;;;16.08;100.00;95180.00;4312400;33;20182;-63
2022/10/15 10:08:19;;;;;;;0.00;0.00;;;;;;;16.02;100.00;95184.00;4291311;33;20193;-63
2022/10/15 10:10:56;;;;;;;0.13;0.13;;;;;;;16.09;100.00;95185.03;4309634;33;20240;-63
2022/10/15 10:13:30;;;;;;;0.10;0.10;;;;;;;16.15;100.00;95182.91;4312630;33;20232;-63
2022/10/15 10:16:04;;;;;;;0.17;0.17;;;;;;;16.13;100.00;95185.94;4317912;33;20213;-63
2022/10/15 10:18:31;;;;;;;1.60;0.33;;;;;;;16.26;100.00;95188.62;4320474;33;20203;-63
2022/10/15 10:21:00;;;;;;;0.13;0.13;;;;;;;16.22;100.00;95187.72;4311082;32;20189;-63
2022/10/15 10:23:35;;;;;;;0.00;0.00;;;;;;;16.22;100.00;95185.03;4328263;32;20204;-63
2022/10/15 10:26:06;;;;;;;0.17;0.17;;;;;;;16.26;100.00;95188.62;4318077;33;20215;-63
2022/10/15 10:28:55;;;;;;;0.10;0.10;;;;;;;16.27;100.00;95195.53;4322006;33;20190;-63
2022/10/15 10:31:38;;;;;;;0.20;0.20;;;;;;;16.37;100.00;95185.19;4320596;32;20189;-63
2022/10/15 10:34:05;;;;;;;0.20;0.20;;;;;;;16.38;100.00;95191.34;4325690;32;20216;-63
2022/10/15 10:36:33;;;;;;;0.20;0.20;;;;;;;16.57;99.16;95198.81;4282415;33;20285;-63
2022/10/15 10:39:14;;;;;;;0.20;0.20;;;;;;;16.67;98.53;95187.69;4307133;33;20285;-63
2022/10/15 10:41:59;;;;;;;0.20;0.20;;;;;;;16.65;97.64;95195.28;4324684;32;20228;-63
2022/10/15 10:44:45;;;;;;;0.33;0.33;;;;;;;16.70;97.38;95184.34;4310613;32;20217;-63
2022/10/15 10:47:17;;;;;;;0.00;0.00;;;;;;;16.78;95.82;95186.13;4327012;32;20200;-63
2022/10/15 10:49:48;;;;;;;0.40;0.40;;;;;;;16.86;95.38;95190.56;4316067;33;20194;-63
2022/10/15 10:52:35;;;;;;;0.30;0.20;;;;;;;16.94;94.79;95191.59;4330807;32;20244;-63
2022/10/15 10:55:18;;;;;;;3.20;0.63;;;;;;;17.03;95.08;95185.00;4330975;32;20197;-63
2022/10/15 10:58:00;;;;;;;0.20;0.20;;;;;;;17.04;94.13;95189.22;4271196;32;20257;-63
2022/10/15 11:00:47;;;;;;;0.10;0.10;;;;;;;17.06;92.96;95188.88;4309293;32;20216;-63
2022/10/15 11:03:54;;;;;;;0.10;0.10;;;;;;;17.13;90.20;95181.84;4281675;33;20264;-63
2022/10/15 11:07:07;;;;;;;0.40;0.33;;;;;;;17.16;91.12;95186.53;4274249;33;20253;-63
2022/10/15 11:10:17;;;;;;;0.10;0.10;;;;;;;17.12;91.72;95182.97;4268182;33;20229;-63
2022/10/15 11:13:17;;;;;;;0.20;0.20;;;;;;;17.17;90.73;95180.06;4317555;32;20231;-63
2022/10/15 11:16:37;;;;;;;0.07;0.07;;;;;;;17.31;90.11;95189.63;4309903;32;20193;-63
2022/10/15 11:19:29;;;;;;;0.20;0.20;;;;;;;17.27;88.32;95186.84;4238160;33;20307;-63
2022/10/15 11:22:22;;;;;;;0.13;0.13;;;;;;;17.36;88.21;95194.75;4316575;32;20248;-63
2022/10/15 11:25:30;;;;;;;0.20;0.20;;;;;;;17.43;87.70;95192.28;4322127;32;20205;-63
2022/10/15 11:28:22;;;;;;;0.00;0.00;;;;;;;17.44;87.81;95191.16;4321644;32;20193;-63
2022/10/15 11:31:02;;;;;;;0.13;0.13;;;;;;;17.47;87.70;95195.84;4336401;32;20224;-63
2022/10/15 11:34:12;;;;;;;0.77;0.73;;;;;;;17.50;87.51;95192.47;4328686;32;20249;-63
2022/10/15 11:37:16;;;;;;;0.10;0.10;;;;;;;17.47;88.07;95195.84;4292321;33;20212;-63
2022/10/15 11:40:14;;;;;;;0.10;0.10;;;;;;;17.45;87.91;95190.06;4320939;32;20181;-63
2022/10/15 11:42:40;;;;;;;0.07;0.07;;;;;;;17.42;86.71;95185.38;4256559;33;20186;-63
2022/10/15 11:45:37;;;;;;;0.10;0.10;;;;;;;17.38;87.92;95195.19;4335251;32;20253;-63
2022/10/15 11:48:28;;;;;;;0.63;0.30;;;;;;;17.38;87.01;95190.63;4317853;33;20228;-63
2022/10/15 11:51:59;;;;;;;0.10;0.10;;;;;;;17.38;86.47;95184.47;4294198;33;20189;-63
2022/10/15 11:54:43;;;;;;;0.20;0.20;;;;;;;17.51;85.75;95183.31;4268829;33;20286;-63